sensor_id;sensor_type;location;lat;lon;timestamp;P1;durP1;ratioP1;P2;durP2;ratioP2
20110;SDS011;10216;42.658;23.248;2022-07-06T00:02:20;17.13;;;15.53;;
20110;SDS011;10216;42.658;23.248;2022-07-06T00:04:50;16.80;;;15.00;;
20110;SDS011;10216;42.658;23.248;2022-07-06T00:07:18;16.20;;;14.50;;
20110;SDS011;10216;42.658;23.248;2022-07-06T00:09:50;16.27;;;14.67;;
20110;SDS011;10216;42.658;23.248;2022-07-06T00:12:20;15.83;;;14.43;;
20110;SDS011;10216;42.658;23.248;2022-07-06T00:14:50;16.73;;;14.90;;
20110;SDS011;10216;42.658;23.248;2022-07-06T00:17:20;16.17;;;14.77;;
20110;SDS011;10216;42.658;23.248;2022-07-06T00:19:49;14.80;;;13.50;;
20110;SDS011;10216;42.658;23.248;2022-07-06T00:22:20;15.30;;;13.83;;
20110;SDS011;10216;42.658;23.248;2022-07-06T00:24:46;16.10;;;14.43;;
20110;SDS011;10216;42.658;23.248;2022-07-06T00:27:12;15.33;;;13.93;;
20110;SDS011;10216;42.658;23.248;2022-07-06T00:29:45;15.67;;;14.23;;
20110;SDS011;10216;42.658;23.248;2022-07-06T00:32:19;15.20;;;13.70;;
20110;SDS011;10216;42.658;23.248;2022-07-06T00:34:50;15.87;;;14.47;;
20110;SDS011;10216;42.658;23.248;2022-07-06T00:37:18;15.50;;;13.80;;
20110;SDS011;10216;42.658;23.248;2022-07-06T00:39:45;15.67;;;14.17;;
20110;SDS011;10216;42.658;23.248;2022-07-06T00:42:12;15.43;;;13.97;;
20110;SDS011;10216;42.658;23.248;2022-07-06T00:44:38;15.77;;;14.30;;
20110;SDS011;10216;42.658;23.248;2022-07-06T00:47:06;16.27;;;14.67;;
20110;SDS011;10216;42.658;23.248;2022-07-06T00:49:34;16.60;;;14.50;;
20110;SDS011;10216;42.658;23.248;2022-07-06T00:52:18;16.17;;;14.77;;
20110;SDS011;10216;42.658;23.248;2022-07-06T00:54:44;16.20;;;14.63;;
20110;SDS011;10216;42.658;23.248;2022-07-06T00:57:11;14.63;;;13.33;;
20110;SDS011;10216;42.658;23.248;2022-07-06T00:59:42;14.50;;;13.10;;
20110;SDS011;10216;42.658;23.248;2022-07-06T01:02:17;14.20;;;13.00;;
20110;SDS011;10216;42.658;23.248;2022-07-06T01:04:50;15.33;;;13.87;;
20110;SDS011;10216;42.658;23.248;2022-07-06T01:07:20;14.50;;;13.07;;
20110;SDS011;10216;42.658;23.248;2022-07-06T01:09:49;14.83;;;13.43;;
20110;SDS011;10216;42.658;23.248;2022-07-06T01:12:16;14.63;;;13.23;;
20110;SDS011;10216;42.658;23.248;2022-07-06T01:14:45;14.40;;;12.97;;
20110;SDS011;10216;42.658;23.248;2022-07-06T01:17:15;15.87;;;13.50;;
20110;SDS011;10216;42.658;23.248;2022-07-06T01:19:42;15.60;;;14.20;;
20110;SDS011;10216;42.658;23.248;2022-07-06T01:22:14;15.33;;;13.63;;
20110;SDS011;10216;42.658;23.248;2022-07-06T01:24:46;14.93;;;13.53;;
20110;SDS011;10216;42.658;23.248;2022-07-06T01:27:15;15.50;;;14.10;;
20110;SDS011;10216;42.658;23.248;2022-07-06T01:29:45;16.83;;;15.27;;
20110;SDS011;10216;42.658;23.248;2022-07-06T01:32:15;14.57;;;13.27;;
20110;SDS011;10216;42.658;23.248;2022-07-06T01:34:49;15.83;;;14.33;;
20110;SDS011;10216;42.658;23.248;2022-07-06T01:37:17;15.77;;;14.27;;
20110;SDS011;10216;42.658;23.248;2022-07-06T01:39:46;16.20;;;14.70;;
20110;SDS011;10216;42.658;23.248;2022-07-06T01:42:16;15.83;;;14.33;;
20110;SDS011;10216;42.658;23.248;2022-07-06T01:44:45;17.00;;;15.40;;
20110;SDS011;10216;42.658;23.248;2022-07-06T01:47:19;16.83;;;15.13;;
20110;SDS011;10216;42.658;23.248;2022-07-06T01:49:49;17.40;;;15.70;;
20110;SDS011;10216;42.658;23.248;2022-07-06T01:52:20;16.93;;;15.30;;
20110;SDS011;10216;42.658;23.248;2022-07-06T01:54:47;16.87;;;15.17;;
20110;SDS011;10216;42.658;23.248;2022-07-06T01:57:17;17.70;;;15.93;;
20110;SDS011;10216;42.658;23.248;2022-07-06T01:59:46;17.70;;;15.97;;
20110;SDS011;10216;42.658;23.248;2022-07-06T02:02:14;17.83;;;16.23;;
20110;SDS011;10216;42.658;23.248;2022-07-06T02:04:44;17.70;;;15.97;;
20110;SDS011;10216;42.658;23.248;2022-07-06T02:07:13;17.23;;;14.93;;
20110;SDS011;10216;42.658;23.248;2022-07-06T02:09:46;16.70;;;15.07;;
20110;SDS011;10216;42.658;23.248;2022-07-06T02:12:15;15.80;;;14.40;;
20110;SDS011;10216;42.658;23.248;2022-07-06T02:14:46;17.03;;;15.43;;
20110;SDS011;10216;42.658;23.248;2022-07-06T02:17:16;17.33;;;15.73;;
20110;SDS011;10216;42.658;23.248;2022-07-06T02:19:47;17.30;;;15.53;;
20110;SDS011;10216;42.658;23.248;2022-07-06T02:22:20;17.97;;;16.30;;
20110;SDS011;10216;42.658;23.248;2022-07-06T02:24:50;17.80;;;15.90;;
20110;SDS011;10216;42.658;23.248;2022-07-06T02:27:19;17.13;;;15.63;;
20110;SDS011;10216;42.658;23.248;2022-07-06T02:29:50;19.63;;;17.57;;
20110;SDS011;10216;42.658;23.248;2022-07-06T02:32:19;19.63;;;16.93;;
20110;SDS011;10216;42.658;23.248;2022-07-06T02:34:47;17.83;;;16.23;;
20110;SDS011;10216;42.658;23.248;2022-07-06T02:37:20;16.97;;;15.33;;
20110;SDS011;10216;42.658;23.248;2022-07-06T02:39:50;16.17;;;14.67;;
20110;SDS011;10216;42.658;23.248;2022-07-06T02:42:18;16.90;;;14.60;;
20110;SDS011;10216;42.658;23.248;2022-07-06T02:44:49;16.17;;;14.77;;
20110;SDS011;10216;42.658;23.248;2022-07-06T02:47:20;16.43;;;15.03;;
20110;SDS011;10216;42.658;23.248;2022-07-06T02:49:52;17.30;;;15.70;;
20110;SDS011;10216;42.658;23.248;2022-07-06T02:52:20;17.23;;;15.60;;
20110;SDS011;10216;42.658;23.248;2022-07-06T02:54:50;18.03;;;16.50;;
20110;SDS011;10216;42.658;23.248;2022-07-06T02:57:20;17.13;;;15.43;;
20110;SDS011;10216;42.658;23.248;2022-07-06T02:59:50;17.03;;;15.43;;
20110;SDS011;10216;42.658;23.248;2022-07-06T03:02:28;17.53;;;15.67;;
20110;SDS011;10216;42.658;23.248;2022-07-06T03:04:59;16.43;;;14.73;;
20110;SDS011;10216;42.658;23.248;2022-07-06T03:07:31;16.67;;;15.07;;
20110;SDS011;10216;42.658;23.248;2022-07-06T03:09:59;16.40;;;14.90;;
20110;SDS011;10216;42.658;23.248;2022-07-06T03:12:29;18.13;;;16.40;;
20110;SDS011;10216;42.658;23.248;2022-07-06T03:15:00;18.17;;;16.33;;
20110;SDS011;10216;42.658;23.248;2022-07-06T03:17:28;17.30;;;15.57;;
20110;SDS011;10216;42.658;23.248;2022-07-06T03:19:59;17.37;;;15.67;;
20110;SDS011;10216;42.658;23.248;2022-07-06T03:22:30;17.47;;;15.60;;
20110;SDS011;10216;42.658;23.248;2022-07-06T03:24:59;15.77;;;14.27;;
20110;SDS011;10216;42.658;23.248;2022-07-06T03:27:30;14.90;;;13.53;;
20110;SDS011;10216;42.658;23.248;2022-07-06T03:29:57;14.57;;;13.17;;
20110;SDS011;10216;42.658;23.248;2022-07-06T03:32:26;15.07;;;13.60;;
20110;SDS011;10216;42.658;23.248;2022-07-06T03:34:59;15.40;;;13.80;;
20110;SDS011;10216;42.658;23.248;2022-07-06T03:37:30;15.40;;;12.30;;
20110;SDS011;10216;42.658;23.248;2022-07-06T03:40:01;13.20;;;12.00;;
20110;SDS011;10216;42.658;23.248;2022-07-06T03:42:33;12.70;;;11.50;;
20110;SDS011;10216;42.658;23.248;2022-07-06T03:45:02;13.60;;;10.53;;
20110;SDS011;10216;42.658;23.248;2022-07-06T03:47:35;13.10;;;11.70;;
20110;SDS011;10216;42.658;23.248;2022-07-06T03:50:11;14.10;;;11.67;;
20110;SDS011;10216;42.658;23.248;2022-07-06T03:52:42;13.40;;;12.10;;
20110;SDS011;10216;42.658;23.248;2022-07-06T03:55:11;13.30;;;10.50;;
20110;SDS011;10216;42.658;23.248;2022-07-06T03:57:37;10.27;;;8.87;;
20110;SDS011;10216;42.658;23.248;2022-07-06T04:00:16;10.83;;;9.83;;
20110;SDS011;10216;42.658;23.248;2022-07-06T04:02:47;10.23;;;9.30;;
20110;SDS011;10216;42.658;23.248;2022-07-06T04:05:15;12.03;;;10.83;;
20110;SDS011;10216;42.658;23.248;2022-07-06T04:07:49;10.87;;;9.77;;
20110;SDS011;10216;42.658;23.248;2022-07-06T04:10:18;10.67;;;9.17;;
20110;SDS011;10216;42.658;23.248;2022-07-06T04:12:49;9.77;;;8.23;;
20110;SDS011;10216;42.658;23.248;2022-07-06T04:15:20;9.70;;;8.70;;
20110;SDS011;10216;42.658;23.248;2022-07-06T04:17:49;9.93;;;8.93;;
20110;SDS011;10216;42.658;23.248;2022-07-06T04:20:24;11.07;;;9.20;;
20110;SDS011;10216;42.658;23.248;2022-07-06T04:22:55;8.50;;;7.70;;
20110;SDS011;10216;42.658;23.248;2022-07-06T04:25:29;9.77;;;7.67;;
20110;SDS011;10216;42.658;23.248;2022-07-06T04:28:00;8.40;;;7.10;;
20110;SDS011;10216;42.658;23.248;2022-07-06T04:30:28;10.57;;;7.90;;
20110;SDS011;10216;42.658;23.248;2022-07-06T04:33:01;9.23;;;8.00;;
20110;SDS011;10216;42.658;23.248;2022-07-06T04:35:36;8.17;;;7.30;;
20110;SDS011;10216;42.658;23.248;2022-07-06T04:38:07;8.57;;;7.73;;
20110;SDS011;10216;42.658;23.248;2022-07-06T04:40:39;8.13;;;7.33;;
20110;SDS011;10216;42.658;23.248;2022-07-06T04:43:17;11.73;;;8.13;;
20110;SDS011;10216;42.658;23.248;2022-07-06T04:45:49;10.10;;;9.10;;
20110;SDS011;10216;42.658;23.248;2022-07-06T04:48:15;8.90;;;8.03;;
20110;SDS011;10216;42.658;23.248;2022-07-06T04:50:48;8.40;;;7.70;;
20110;SDS011;10216;42.658;23.248;2022-07-06T04:53:16;10.50;;;9.57;;
20110;SDS011;10216;42.658;23.248;2022-07-06T04:55:48;12.03;;;10.03;;
20110;SDS011;10216;42.658;23.248;2022-07-06T04:58:15;12.87;;;10.10;;
20110;SDS011;10216;42.658;23.248;2022-07-06T05:00:44;12.47;;;10.30;;
20110;SDS011;10216;42.658;23.248;2022-07-06T05:03:13;14.37;;;11.20;;
20110;SDS011;10216;42.658;23.248;2022-07-06T05:05:46;11.90;;;10.13;;
20110;SDS011;10216;42.658;23.248;2022-07-06T05:08:19;11.07;;;9.87;;
20110;SDS011;10216;42.658;23.248;2022-07-06T05:10:50;11.63;;;10.43;;
20110;SDS011;10216;42.658;23.248;2022-07-06T05:13:20;12.60;;;10.40;;
20110;SDS011;10216;42.658;23.248;2022-07-06T05:15:50;12.57;;;11.27;;
20110;SDS011;10216;42.658;23.248;2022-07-06T05:18:16;10.97;;;9.87;;
20110;SDS011;10216;42.658;23.248;2022-07-06T05:20:47;12.93;;;11.17;;
20110;SDS011;10216;42.658;23.248;2022-07-06T05:23:16;11.93;;;10.27;;
20110;SDS011;10216;42.658;23.248;2022-07-06T05:25:42;11.27;;;9.83;;
20110;SDS011;10216;42.658;23.248;2022-07-06T05:28:13;11.07;;;9.93;;
20110;SDS011;10216;42.658;23.248;2022-07-06T05:30:47;11.60;;;10.50;;
20110;SDS011;10216;42.658;23.248;2022-07-06T05:33:19;11.40;;;10.30;;
20110;SDS011;10216;42.658;23.248;2022-07-06T05:35:49;11.83;;;10.07;;
20110;SDS011;10216;42.658;23.248;2022-07-06T05:38:18;10.50;;;9.50;;
20110;SDS011;10216;42.658;23.248;2022-07-06T05:40:49;9.67;;;8.70;;
20110;SDS011;10216;42.658;23.248;2022-07-06T05:43:20;11.77;;;9.47;;
20110;SDS011;10216;42.658;23.248;2022-07-06T05:45:50;10.53;;;9.43;;
20110;SDS011;10216;42.658;23.248;2022-07-06T05:48:20;9.63;;;8.73;;
20110;SDS011;10216;42.658;23.248;2022-07-06T05:51:07;10.13;;;8.77;;
20110;SDS011;10216;42.658;23.248;2022-07-06T05:53:35;15.40;;;10.27;;
20110;SDS011;10216;42.658;23.248;2022-07-06T05:56:05;10.20;;;9.20;;
20110;SDS011;10216;42.658;23.248;2022-07-06T05:58:42;11.13;;;8.67;;
20110;SDS011;10216;42.658;23.248;2022-07-06T06:01:08;9.70;;;8.80;;
20110;SDS011;10216;42.658;23.248;2022-07-06T06:03:41;9.97;;;8.70;;
20110;SDS011;10216;42.658;23.248;2022-07-06T06:06:08;11.77;;;8.67;;
20110;SDS011;10216;42.658;23.248;2022-07-06T06:08:41;9.63;;;8.63;;
20110;SDS011;10216;42.658;23.248;2022-07-06T06:11:12;9.37;;;8.30;;
20110;SDS011;10216;42.658;23.248;2022-07-06T06:13:39;10.10;;;8.40;;
20110;SDS011;10216;42.658;23.248;2022-07-06T06:16:13;9.67;;;8.23;;
20110;SDS011;10216;42.658;23.248;2022-07-06T06:18:40;9.27;;;8.33;;
20110;SDS011;10216;42.658;23.248;2022-07-06T06:21:10;14.30;;;9.33;;
20110;SDS011;10216;42.658;23.248;2022-07-06T06:23:39;9.23;;;8.33;;
20110;SDS011;10216;42.658;23.248;2022-07-06T06:26:13;10.03;;;9.00;;
20110;SDS011;10216;42.658;23.248;2022-07-06T06:28:42;11.80;;;8.77;;
20110;SDS011;10216;42.658;23.248;2022-07-06T06:31:15;10.00;;;8.97;;
20110;SDS011;10216;42.658;23.248;2022-07-06T06:33:45;13.27;;;9.93;;
20110;SDS011;10216;42.658;23.248;2022-07-06T06:36:15;10.83;;;9.10;;
20110;SDS011;10216;42.658;23.248;2022-07-06T06:38:45;10.97;;;9.87;;
20110;SDS011;10216;42.658;23.248;2022-07-06T06:41:13;14.23;;;10.77;;
20110;SDS011;10216;42.658;23.248;2022-07-06T06:43:39;12.43;;;10.57;;
20110;SDS011;10216;42.658;23.248;2022-07-06T06:46:05;11.67;;;10.53;;
20110;SDS011;10216;42.658;23.248;2022-07-06T06:48:35;13.07;;;10.27;;
20110;SDS011;10216;42.658;23.248;2022-07-06T06:51:03;12.00;;;10.90;;
20110;SDS011;10216;42.658;23.248;2022-07-06T06:53:35;11.67;;;10.47;;
20110;SDS011;10216;42.658;23.248;2022-07-06T06:56:04;11.53;;;10.33;;
20110;SDS011;10216;42.658;23.248;2022-07-06T06:58:40;12.23;;;11.00;;
20110;SDS011;10216;42.658;23.248;2022-07-06T07:01:07;11.97;;;10.60;;
20110;SDS011;10216;42.658;23.248;2022-07-06T07:03:38;13.20;;;11.67;;
20110;SDS011;10216;42.658;23.248;2022-07-06T07:06:09;14.07;;;12.67;;
20110;SDS011;10216;42.658;23.248;2022-07-06T07:08:37;14.23;;;12.83;;
20110;SDS011;10216;42.658;23.248;2022-07-06T07:11:04;14.90;;;13.50;;
20110;SDS011;10216;42.658;23.248;2022-07-06T07:13:37;14.87;;;13.47;;
20110;SDS011;10216;42.658;23.248;2022-07-06T07:16:05;15.83;;;13.63;;
20110;SDS011;10216;42.658;23.248;2022-07-06T07:18:32;15.10;;;13.60;;
20110;SDS011;10216;42.658;23.248;2022-07-06T07:20:58;14.53;;;13.20;;
20110;SDS011;10216;42.658;23.248;2022-07-06T07:23:26;14.37;;;13.17;;
20110;SDS011;10216;42.658;23.248;2022-07-06T07:25:55;14.83;;;13.33;;
20110;SDS011;10216;42.658;23.248;2022-07-06T07:28:21;16.20;;;14.70;;
20110;SDS011;10216;42.658;23.248;2022-07-06T07:30:48;15.03;;;13.63;;
20110;SDS011;10216;42.658;23.248;2022-07-06T07:33:16;14.50;;;13.20;;
20110;SDS011;10216;42.658;23.248;2022-07-06T07:35:42;15.70;;;14.20;;
20110;SDS011;10216;42.658;23.248;2022-07-06T07:38:15;16.47;;;14.53;;
20110;SDS011;10216;42.658;23.248;2022-07-06T07:40:48;16.93;;;15.27;;
20110;SDS011;10216;42.658;23.248;2022-07-06T07:43:17;16.53;;;15.03;;
20110;SDS011;10216;42.658;23.248;2022-07-06T07:45:46;16.03;;;14.53;;
20110;SDS011;10216;42.658;23.248;2022-07-06T07:48:17;15.27;;;13.63;;
20110;SDS011;10216;42.658;23.248;2022-07-06T07:50:45;14.37;;;13.23;;
20110;SDS011;10216;42.658;23.248;2022-07-06T07:53:11;14.53;;;13.33;;
20110;SDS011;10216;42.658;23.248;2022-07-06T07:55:45;15.03;;;13.83;;
20110;SDS011;10216;42.658;23.248;2022-07-06T07:58:19;14.23;;;12.83;;
20110;SDS011;10216;42.658;23.248;2022-07-06T08:00:57;14.13;;;12.67;;
20110;SDS011;10216;42.658;23.248;2022-07-06T08:03:31;14.03;;;12.80;;
20110;SDS011;10216;42.658;23.248;2022-07-06T08:06:02;14.20;;;12.83;;
20110;SDS011;10216;42.658;23.248;2022-07-06T08:08:35;15.23;;;13.73;;
20110;SDS011;10216;42.658;23.248;2022-07-06T08:11:07;13.57;;;12.23;;
20110;SDS011;10216;42.658;23.248;2022-07-06T08:13:35;14.00;;;12.60;;
20110;SDS011;10216;42.658;23.248;2022-07-06T08:16:03;13.80;;;12.50;;
20110;SDS011;10216;42.658;23.248;2022-07-06T08:18:32;13.57;;;12.33;;
20110;SDS011;10216;42.658;23.248;2022-07-06T08:21:00;13.83;;;12.53;;
20110;SDS011;10216;42.658;23.248;2022-07-06T08:23:30;12.03;;;10.93;;
20110;SDS011;10216;42.658;23.248;2022-07-06T08:26:00;12.60;;;11.17;;
20110;SDS011;10216;42.658;23.248;2022-07-06T08:28:33;13.30;;;12.20;;
20110;SDS011;10216;42.658;23.248;2022-07-06T08:31:02;12.00;;;10.87;;
20110;SDS011;10216;42.658;23.248;2022-07-06T08:33:31;12.60;;;11.50;;
20110;SDS011;10216;42.658;23.248;2022-07-06T08:35:59;17.35;;;11.95;;
20110;SDS011;10216;42.658;23.248;2022-07-06T08:38:32;13.63;;;12.23;;
20110;SDS011;10216;42.658;23.248;2022-07-06T08:40:57;14.27;;;11.87;;
20110;SDS011;10216;42.658;23.248;2022-07-06T08:43:30;13.37;;;12.27;;
20110;SDS011;10216;42.658;23.248;2022-07-06T08:45:56;13.67;;;12.47;;
20110;SDS011;10216;42.658;23.248;2022-07-06T08:48:30;13.20;;;11.97;;
20110;SDS011;10216;42.658;23.248;2022-07-06T08:51:11;13.35;;;12.00;;
20110;SDS011;10216;42.658;23.248;2022-07-06T08:53:44;13.25;;;11.93;;
20110;SDS011;10216;42.658;23.248;2022-07-06T08:56:13;13.48;;;12.27;;
20110;SDS011;10216;42.658;23.248;2022-07-06T08:58:46;12.32;;;11.13;;
20110;SDS011;10216;42.658;23.248;2022-07-06T09:01:20;12.48;;;11.25;;
20110;SDS011;10216;42.658;23.248;2022-07-06T09:03:54;12.85;;;11.65;;
20110;SDS011;10216;42.658;23.248;2022-07-06T09:06:27;12.50;;;11.13;;
20110;SDS011;10216;42.658;23.248;2022-07-06T09:08:55;11.63;;;10.43;;
20110;SDS011;10216;42.658;23.248;2022-07-06T09:11:26;13.03;;;11.60;;
20110;SDS011;10216;42.658;23.248;2022-07-06T09:13:52;12.93;;;11.73;;
20110;SDS011;10216;42.658;23.248;2022-07-06T09:16:25;12.75;;;11.65;;
20110;SDS011;10216;42.658;23.248;2022-07-06T09:18:55;13.00;;;11.70;;
20110;SDS011;10216;42.658;23.248;2022-07-06T09:21:30;11.88;;;10.77;;
20110;SDS011;10216;42.658;23.248;2022-07-06T09:24:08;12.20;;;11.07;;
20110;SDS011;10216;42.658;23.248;2022-07-06T09:26:38;11.65;;;10.52;;
20110;SDS011;10216;42.658;23.248;2022-07-06T09:29:06;10.90;;;9.90;;
20110;SDS011;10216;42.658;23.248;2022-07-06T09:31:36;11.18;;;10.25;;
20110;SDS011;10216;42.658;23.248;2022-07-06T09:34:10;11.43;;;10.23;;
20110;SDS011;10216;42.658;23.248;2022-07-06T09:36:39;10.00;;;9.20;;
20110;SDS011;10216;42.658;23.248;2022-07-06T09:39:15;10.07;;;9.18;;
20110;SDS011;10216;42.658;23.248;2022-07-06T09:41:44;12.73;;;11.43;;
20110;SDS011;10216;42.658;23.248;2022-07-06T09:44:11;13.80;;;12.63;;
20110;SDS011;10216;42.658;23.248;2022-07-06T09:46:42;14.75;;;13.27;;
20110;SDS011;10216;42.658;23.248;2022-07-06T09:49:11;13.45;;;12.23;;
20110;SDS011;10216;42.658;23.248;2022-07-06T09:51:42;15.38;;;13.82;;
20110;SDS011;10216;42.658;23.248;2022-07-06T09:54:13;14.55;;;13.25;;
20110;SDS011;10216;42.658;23.248;2022-07-06T09:56:50;14.90;;;13.60;;
20110;SDS011;10216;42.658;23.248;2022-07-06T09:59:17;13.38;;;12.27;;
20110;SDS011;10216;42.658;23.248;2022-07-06T10:01:52;14.90;;;13.20;;
20110;SDS011;10216;42.658;23.248;2022-07-06T10:04:24;14.60;;;13.15;;
20110;SDS011;10216;42.658;23.248;2022-07-06T10:06:52;14.75;;;13.52;;
20110;SDS011;10216;42.658;23.248;2022-07-06T10:09:20;13.85;;;12.65;;
20110;SDS011;10216;42.658;23.248;2022-07-06T10:11:50;14.15;;;12.75;;
20110;SDS011;10216;42.658;23.248;2022-07-06T10:14:23;13.73;;;12.52;;
20110;SDS011;10216;42.658;23.248;2022-07-06T10:16:56;15.02;;;13.68;;
20110;SDS011;10216;42.658;23.248;2022-07-06T10:19:30;14.18;;;12.88;;
20110;SDS011;10216;42.658;23.248;2022-07-06T10:22:02;15.45;;;14.10;;
20110;SDS011;10216;42.658;23.248;2022-07-06T10:24:29;15.50;;;14.00;;
20110;SDS011;10216;42.658;23.248;2022-07-06T10:26:59;15.18;;;13.65;;
20110;SDS011;10216;42.658;23.248;2022-07-06T10:29:27;15.80;;;14.27;;
20110;SDS011;10216;42.658;23.248;2022-07-06T10:31:57;13.43;;;12.23;;
20110;SDS011;10216;42.658;23.248;2022-07-06T10:34:29;14.48;;;13.18;;
20110;SDS011;10216;42.658;23.248;2022-07-06T10:37:09;14.75;;;13.32;;
20110;SDS011;10216;42.658;23.248;2022-07-06T10:39:50;14.13;;;12.88;;
20110;SDS011;10216;42.658;23.248;2022-07-06T10:50:54;11.75;;;10.77;;
20110;SDS011;10216;42.658;23.248;2022-07-06T10:53:34;12.07;;;10.90;;
20110;SDS011;10216;42.658;23.248;2022-07-06T10:56:08;11.50;;;10.32;;
20110;SDS011;10216;42.658;23.248;2022-07-06T10:58:49;13.18;;;11.85;;
20110;SDS011;10216;42.658;23.248;2022-07-06T11:01:20;13.40;;;12.13;;
20110;SDS011;10216;42.658;23.248;2022-07-06T11:06:31;13.30;;;12.10;;
20110;SDS011;10216;42.658;23.248;2022-07-06T11:09:02;12.68;;;11.57;;
20110;SDS011;10216;42.658;23.248;2022-07-06T11:11:41;13.25;;;12.05;;
20110;SDS011;10216;42.658;23.248;2022-07-06T11:14:17;13.13;;;12.02;;
20110;SDS011;10216;42.658;23.248;2022-07-06T11:19:29;13.35;;;12.15;;
20110;SDS011;10216;42.658;23.248;2022-07-06T11:22:09;14.15;;;12.95;;
20110;SDS011;10216;42.658;23.248;2022-07-06T11:24:40;15.63;;;14.35;;
20110;SDS011;10216;42.658;23.248;2022-07-06T11:27:09;15.40;;;14.10;;
20110;SDS011;10216;42.658;23.248;2022-07-06T11:29:38;14.35;;;13.05;;
20110;SDS011;10216;42.658;23.248;2022-07-06T11:32:07;14.63;;;13.20;;
20110;SDS011;10216;42.658;23.248;2022-07-06T11:34:40;14.30;;;13.13;;
20110;SDS011;10216;42.658;23.248;2022-07-06T11:39:41;13.07;;;12.00;;
20110;SDS011;10216;42.658;23.248;2022-07-06T11:42:17;12.35;;;11.30;;
20110;SDS011;10216;42.658;23.248;2022-07-06T11:44:45;12.23;;;11.13;;
20110;SDS011;10216;42.658;23.248;2022-07-06T11:47:17;10.93;;;9.88;;
20110;SDS011;10216;42.658;23.248;2022-07-06T11:49:50;11.85;;;10.85;;
20110;SDS011;10216;42.658;23.248;2022-07-06T11:52:19;10.70;;;9.80;;
20110;SDS011;10216;42.658;23.248;2022-07-06T11:54:48;11.93;;;10.85;;
20110;SDS011;10216;42.658;23.248;2022-07-06T11:57:30;11.55;;;10.55;;
20110;SDS011;10216;42.658;23.248;2022-07-06T12:00:01;13.25;;;12.15;;
20110;SDS011;10216;42.658;23.248;2022-07-06T12:02:31;11.68;;;10.77;;
20110;SDS011;10216;42.658;23.248;2022-07-06T12:05:03;14.20;;;13.10;;
20110;SDS011;10216;42.658;23.248;2022-07-06T12:07:36;13.60;;;12.60;;
20110;SDS011;10216;42.658;23.248;2022-07-06T12:10:06;14.70;;;13.35;;
20110;SDS011;10216;42.658;23.248;2022-07-06T12:12:39;14.13;;;12.82;;
20110;SDS011;10216;42.658;23.248;2022-07-06T12:15:14;12.63;;;11.52;;
20110;SDS011;10216;42.658;23.248;2022-07-06T12:17:58;14.05;;;12.85;;
20110;SDS011;10216;42.658;23.248;2022-07-06T12:20:28;14.77;;;13.35;;
20110;SDS011;10216;42.658;23.248;2022-07-06T12:23:05;12.57;;;11.35;;
20110;SDS011;10216;42.658;23.248;2022-07-06T12:25:37;11.68;;;10.68;;
20110;SDS011;10216;42.658;23.248;2022-07-06T12:28:04;10.77;;;9.93;;
20110;SDS011;10216;42.658;23.248;2022-07-06T12:30:47;10.30;;;9.40;;
20110;SDS011;10216;42.658;23.248;2022-07-06T12:33:18;11.05;;;9.50;;
20110;SDS011;10216;42.658;23.248;2022-07-06T12:35:44;10.45;;;9.65;;
20110;SDS011;10216;42.658;23.248;2022-07-06T12:38:11;10.38;;;9.57;;
20110;SDS011;10216;42.658;23.248;2022-07-06T12:40:37;9.30;;;8.55;;
20110;SDS011;10216;42.658;23.248;2022-07-06T12:43:03;9.88;;;8.90;;
20110;SDS011;10216;42.658;23.248;2022-07-06T12:45:30;9.38;;;8.55;;
20110;SDS011;10216;42.658;23.248;2022-07-06T12:47:59;8.00;;;7.30;;
20110;SDS011;10216;42.658;23.248;2022-07-06T12:50:33;9.25;;;8.45;;
20110;SDS011;10216;42.658;23.248;2022-07-06T12:53:00;9.00;;;8.13;;
20110;SDS011;10216;42.658;23.248;2022-07-06T12:55:27;8.38;;;7.68;;
20110;SDS011;10216;42.658;23.248;2022-07-06T12:57:55;9.23;;;8.45;;
20110;SDS011;10216;42.658;23.248;2022-07-06T13:00:21;8.23;;;7.63;;
20110;SDS011;10216;42.658;23.248;2022-07-06T13:02:48;8.55;;;7.80;;
20110;SDS011;10216;42.658;23.248;2022-07-06T13:05:21;8.20;;;7.60;;
20110;SDS011;10216;42.658;23.248;2022-07-06T13:07:55;9.13;;;8.13;;
20110;SDS011;10216;42.658;23.248;2022-07-06T13:10:22;7.53;;;6.93;;
20110;SDS011;10216;42.658;23.248;2022-07-06T13:12:49;6.68;;;6.18;;
20110;SDS011;10216;42.658;23.248;2022-07-06T13:15:15;6.45;;;5.80;;
20110;SDS011;10216;42.658;23.248;2022-07-06T13:17:41;6.07;;;5.55;;
20110;SDS011;10216;42.658;23.248;2022-07-06T13:20:09;5.63;;;5.00;;
20110;SDS011;10216;42.658;23.248;2022-07-06T13:22:38;5.65;;;5.22;;
20110;SDS011;10216;42.658;23.248;2022-07-06T13:25:05;4.75;;;4.35;;
20110;SDS011;10216;42.658;23.248;2022-07-06T13:27:31;4.57;;;4.13;;
20110;SDS011;10216;42.658;23.248;2022-07-06T13:29:56;4.65;;;4.25;;
20110;SDS011;10216;42.658;23.248;2022-07-06T13:32:22;4.82;;;4.35;;
20110;SDS011;10216;42.658;23.248;2022-07-06T13:34:48;4.53;;;4.03;;
20110;SDS011;10216;42.658;23.248;2022-07-06T13:37:14;5.43;;;3.95;;
20110;SDS011;10216;42.658;23.248;2022-07-06T13:39:40;4.00;;;3.67;;
20110;SDS011;10216;42.658;23.248;2022-07-06T13:42:06;4.47;;;4.07;;
20110;SDS011;10216;42.658;23.248;2022-07-06T13:44:32;3.55;;;3.25;;
20110;SDS011;10216;42.658;23.248;2022-07-06T13:46:59;3.60;;;3.30;;
20110;SDS011;10216;42.658;23.248;2022-07-06T13:49:25;3.20;;;2.90;;
20110;SDS011;10216;42.658;23.248;2022-07-06T13:51:50;2.78;;;2.58;;
20110;SDS011;10216;42.658;23.248;2022-07-06T13:54:16;2.90;;;2.15;;
20110;SDS011;10216;42.658;23.248;2022-07-06T13:56:42;2.67;;;2.40;;
20110;SDS011;10216;42.658;23.248;2022-07-06T13:59:07;2.45;;;2.25;;
20110;SDS011;10216;42.658;23.248;2022-07-06T14:01:33;3.25;;;2.17;;
20110;SDS011;10216;42.658;23.248;2022-07-06T14:03:58;2.13;;;2.00;;
20110;SDS011;10216;42.658;23.248;2022-07-06T14:06:24;1.83;;;1.73;;
20110;SDS011;10216;42.658;23.248;2022-07-06T14:08:49;2.35;;;1.80;;
20110;SDS011;10216;42.658;23.248;2022-07-06T14:11:17;2.17;;;1.92;;
20110;SDS011;10216;42.658;23.248;2022-07-06T14:13:43;1.90;;;1.80;;
20110;SDS011;10216;42.658;23.248;2022-07-06T14:16:10;9.07;;;2.10;;
20110;SDS011;10216;42.658;23.248;2022-07-06T14:18:35;2.17;;;1.98;;
20110;SDS011;10216;42.658;23.248;2022-07-06T14:21:02;1.80;;;1.70;;
20110;SDS011;10216;42.658;23.248;2022-07-06T14:23:28;2.08;;;1.98;;
20110;SDS011;10216;42.658;23.248;2022-07-06T14:25:55;2.03;;;1.92;;
20110;SDS011;10216;42.658;23.248;2022-07-06T14:28:21;2.20;;;2.00;;
20110;SDS011;10216;42.658;23.248;2022-07-06T14:30:47;2.40;;;2.17;;
20110;SDS011;10216;42.658;23.248;2022-07-06T14:33:13;2.08;;;1.98;;
20110;SDS011;10216;42.658;23.248;2022-07-06T14:35:41;2.42;;;2.22;;
20110;SDS011;10216;42.658;23.248;2022-07-06T14:38:09;2.28;;;2.00;;
20110;SDS011;10216;42.658;23.248;2022-07-06T14:40:36;2.25;;;2.15;;
20110;SDS011;10216;42.658;23.248;2022-07-06T14:43:03;2.20;;;2.00;;
20110;SDS011;10216;42.658;23.248;2022-07-06T14:45:30;2.28;;;2.08;;
20110;SDS011;10216;42.658;23.248;2022-07-06T14:47:57;2.65;;;2.45;;
20110;SDS011;10216;42.658;23.248;2022-07-06T14:50:24;2.58;;;1.88;;